createdAt,value
2017-05-21T00:00:21.560Z,0
2017-05-21T00:01:01.998Z,0
2017-05-21T00:01:42.425Z,0
2017-05-21T00:02:22.898Z,0
2017-05-21T00:03:03.313Z,0
2017-05-21T00:03:43.718Z,0
2017-05-21T00:04:24.152Z,0
2017-05-21T00:05:04.612Z,0
2017-05-21T00:07:32.620Z,0
2017-05-21T00:08:13.038Z,0
2017-05-21T00:08:53.494Z,0
2017-05-21T00:09:33.911Z,0
2017-05-21T00:10:14.314Z,0
2017-05-21T00:10:54.733Z,0
2017-05-21T00:11:35.169Z,0
2017-05-21T00:13:47.952Z,0
2017-05-21T00:14:29.025Z,0
2017-05-21T00:15:09.417Z,0
2017-05-21T00:15:49.822Z,0
2017-05-21T00:16:30.252Z,0
2017-05-21T00:17:10.678Z,0
2017-05-21T00:17:51.076Z,0
2017-05-21T00:18:31.507Z,0
2017-05-21T00:19:11.920Z,0
2017-05-21T00:19:52.273Z,0
2017-05-21T00:20:32.696Z,0
2017-05-21T00:21:13.103Z,0
2017-05-21T00:21:53.508Z,0
2017-05-21T00:22:33.917Z,0
2017-05-21T00:23:14.308Z,0
2017-05-21T00:23:54.719Z,0
2017-05-21T00:24:35.128Z,0
2017-05-21T00:25:15.585Z,0
2017-05-21T00:27:48.813Z,0
2017-05-21T00:28:29.244Z,0
2017-05-21T00:29:09.662Z,0
2017-05-21T00:29:50.115Z,0
2017-05-21T00:30:30.572Z,0
2017-05-21T00:31:10.978Z,0
2017-05-21T00:31:51.415Z,0
2017-05-21T00:32:31.816Z,0
2017-05-21T00:33:12.256Z,0
2017-05-21T00:33:52.638Z,0
2017-05-21T00:34:33.091Z,0
2017-05-21T00:35:13.545Z,0
2017-05-21T00:37:26.296Z,0
2017-05-21T00:38:06.716Z,0
2017-05-21T00:38:47.154Z,0
2017-05-21T00:39:27.556Z,0
2017-05-21T00:40:07.972Z,0
2017-05-21T00:40:48.411Z,0
2017-05-21T00:41:28.818Z,0
2017-05-21T00:42:09.224Z,0
2017-05-21T00:42:49.656Z,0
2017-05-21T00:43:30.111Z,0
2017-05-21T00:44:10.531Z,0
2017-05-21T00:44:50.914Z,0
2017-05-21T00:45:31.350Z,0
2017-05-21T00:46:11.781Z,0
2017-05-21T00:46:52.179Z,0
2017-05-21T00:47:32.586Z,0
2017-05-21T00:48:12.953Z,0
2017-05-21T00:48:53.416Z,0
2017-05-21T00:49:33.832Z,0
2017-05-21T00:50:14.234Z,0
2017-05-21T00:50:54.674Z,0
2017-05-21T00:51:35.062Z,0
2017-05-21T00:53:47.813Z,0
2017-05-21T00:54:28.255Z,0
2017-05-21T00:55:08.668Z,0
2017-05-21T00:55:49.087Z,0
2017-05-21T00:56:29.505Z,0
2017-05-21T00:57:09.923Z,0
2017-05-21T00:57:50.343Z,0
2017-05-21T00:58:30.734Z,0
2017-05-21T00:59:11.142Z,0
2017-05-21T00:59:51.581Z,0
2017-05-21T01:02:19.629Z,0
2017-05-21T01:03:00.066Z,0
2017-05-21T01:03:40.505Z,0
2017-05-21T01:04:20.950Z,0
2017-05-21T01:05:01.379Z,0
2017-05-21T01:05:41.759Z,0
2017-05-21T01:06:22.223Z,0
2017-05-21T01:07:02.636Z,0
2017-05-21T01:07:43.025Z,0
2017-05-21T01:08:23.428Z,0
2017-05-21T01:09:03.842Z,0
2017-05-21T01:09:44.233Z,0
2017-05-21T01:10:24.644Z,0
2017-05-21T01:11:05.052Z,0
2017-05-21T01:11:45.477Z,0
2017-05-21T01:12:25.924Z,0
2017-05-21T01:13:06.297Z,0
2017-05-21T01:13:46.711Z,0
2017-05-21T01:14:27.125Z,0
2017-05-21T01:15:07.547Z,0
2017-05-21T01:15:47.986Z,0
2017-05-21T01:16:28.406Z,0
2017-05-21T01:17:08.823Z,0
2017-05-21T01:17:50.431Z,0
2017-05-21T01:18:30.844Z,0
2017-05-21T01:19:11.238Z,0
2017-05-21T01:19:51.644Z,0
2017-05-21T01:20:32.035Z,0
2017-05-21T01:21:12.511Z,0
2017-05-21T01:21:52.922Z,0
2017-05-21T01:22:33.309Z,0
2017-05-21T01:23:13.770Z,0
2017-05-21T01:23:54.148Z,0
2017-05-21T01:24:34.564Z,0
2017-05-21T01:25:14.994Z,0
2017-05-21T01:25:55.420Z,0
2017-05-21T01:26:35.845Z,0
2017-05-21T01:27:16.275Z,0
2017-05-21T01:27:56.677Z,0
2017-05-21T01:28:37.094Z,0
2017-05-21T01:29:17.504Z,0
2017-05-21T01:29:57.882Z,0
2017-05-21T01:30:38.347Z,0
2017-05-21T01:31:18.718Z,0
2017-05-21T01:31:59.198Z,0
2017-05-21T01:32:39.603Z,0
2017-05-21T01:33:20.002Z,0
2017-05-21T01:35:48.739Z,0
2017-05-21T01:36:29.119Z,0
2017-05-21T01:37:09.558Z,0
2017-05-21T01:37:49.953Z,0
2017-05-21T01:38:30.382Z,0
2017-05-21T01:39:10.787Z,0
2017-05-21T01:39:51.185Z,0
2017-05-21T01:42:24.377Z,0
2017-05-21T01:43:04.806Z,0
2017-05-21T01:43:45.217Z,0
2017-05-21T01:44:26.472Z,0
2017-05-21T01:45:06.893Z,0
2017-05-21T01:45:47.297Z,0
2017-05-21T01:46:27.737Z,0
2017-05-21T01:47:08.154Z,0
2017-05-21T01:47:48.555Z,0
2017-05-21T01:48:28.946Z,0
2017-05-21T01:49:09.361Z,0
2017-05-21T01:49:49.760Z,0
2017-05-21T01:50:30.180Z,0
2017-05-21T01:51:10.575Z,0
2017-05-21T01:51:50.991Z,0
2017-05-21T01:52:31.402Z,0
2017-05-21T01:53:11.837Z,0
2017-05-21T01:53:52.255Z,0
2017-05-21T01:56:05.231Z,0
2017-05-21T01:56:45.653Z,0
2017-05-21T01:57:26.069Z,0
2017-05-21T01:58:06.497Z,0
2017-05-21T01:58:46.930Z,0
2017-05-21T01:59:27.327Z,0
2017-05-21T02:00:07.793Z,0
2017-05-21T02:00:48.160Z,0
2017-05-21T02:01:28.600Z,0
2017-05-21T02:02:09.010Z,0
2017-05-21T02:02:49.433Z,0
2017-05-21T02:03:29.828Z,0
2017-05-21T02:04:10.287Z,0
2017-05-21T02:04:50.637Z,0
2017-05-21T02:05:31.077Z,0
2017-05-21T02:06:11.469Z,0
2017-05-21T02:06:51.894Z,0
2017-05-21T02:07:32.343Z,0
2017-05-21T02:10:05.419Z,0
2017-05-21T02:10:45.832Z,0
2017-05-21T02:11:26.251Z,0
2017-05-21T02:12:06.705Z,0
2017-05-21T02:14:34.835Z,0
2017-05-21T02:15:15.229Z,0
2017-05-21T02:15:55.679Z,0
2017-05-21T02:16:36.115Z,0
2017-05-21T02:17:16.507Z,0
2017-05-21T02:17:56.944Z,0
2017-05-21T02:18:37.323Z,0
2017-05-21T02:19:17.753Z,0
2017-05-21T02:19:58.161Z,0
2017-05-21T02:20:38.577Z,0
2017-05-21T02:21:18.992Z,0
2017-05-21T02:21:59.384Z,0
2017-05-21T02:22:39.804Z,0
2017-05-21T02:23:20.231Z,0
2017-05-21T02:24:00.626Z,0
2017-05-21T02:24:41.036Z,0
2017-05-21T02:25:21.482Z,0
2017-05-21T02:26:01.918Z,0
2017-05-21T02:26:42.364Z,0
2017-05-21T02:27:22.774Z,0
2017-05-21T02:28:03.126Z,0
2017-05-21T02:28:43.624Z,0
2017-05-21T02:29:24.040Z,0
2017-05-21T02:30:04.431Z,0
2017-05-21T02:30:44.885Z,0
2017-05-21T02:31:25.299Z,0
2017-05-21T02:32:05.726Z,0
2017-05-21T02:32:46.178Z,0
2017-05-21T02:33:26.634Z,0
2017-05-21T02:34:07.051Z,0
2017-05-21T02:36:35.229Z,0
2017-05-21T02:37:15.587Z,0
2017-05-21T02:37:56.021Z,0
2017-05-21T02:38:36.398Z,0
2017-05-21T02:39:16.796Z,0
2017-05-21T02:39:57.202Z,0
2017-05-21T02:40:37.614Z,0
2017-05-21T02:41:18.044Z,0
2017-05-21T02:41:58.529Z,0
2017-05-21T02:42:38.928Z,0
2017-05-21T02:43:19.329Z,0
2017-05-21T02:43:59.785Z,0
2017-05-21T02:44:40.192Z,0
2017-05-21T02:45:20.626Z,0
2017-05-21T02:46:01.152Z,0
2017-05-21T02:46:41.658Z,0
2017-05-21T02:47:22.113Z,0
2017-05-21T02:48:02.492Z,0
2017-05-21T02:48:42.901Z,0
2017-05-21T02:49:23.328Z,0
2017-05-21T02:50:03.801Z,0
2017-05-21T02:50:44.168Z,0
2017-05-21T02:52:56.992Z,0
2017-05-21T02:53:37.411Z,0
2017-05-21T02:54:17.833Z,0
2017-05-21T02:56:16.035Z,4
2017-05-21T02:56:56.464Z,4
2017-05-21T02:57:36.907Z,4
2017-05-21T02:58:17.269Z,4
2017-05-21T02:58:57.660Z,4
2017-05-21T02:59:39.046Z,0
2017-05-21T03:00:19.457Z,4
2017-05-21T03:00:59.869Z,4
2017-05-21T03:01:40.286Z,4
2017-05-21T03:03:38.126Z,8
2017-05-21T03:04:18.561Z,8
2017-05-21T03:04:58.986Z,8
2017-05-21T03:05:39.402Z,8
2017-05-21T03:06:19.907Z,8
2017-05-21T03:07:00.291Z,12
2017-05-21T03:07:40.664Z,12
2017-05-21T03:08:21.118Z,12
2017-05-21T03:10:54.333Z,20
2017-05-21T03:11:34.778Z,20
2017-05-21T03:12:15.231Z,24
2017-05-21T03:12:55.640Z,28
2017-05-21T03:13:36.034Z,24
2017-05-21T03:14:16.506Z,28
2017-05-21T03:14:56.911Z,32
2017-05-21T03:15:37.334Z,36
2017-05-21T03:16:17.710Z,36
2017-05-21T03:18:50.816Z,52
2017-05-21T03:19:31.239Z,56
2017-05-21T03:20:11.660Z,60
2017-05-21T03:22:24.905Z,80
2017-05-21T03:23:05.348Z,88
2017-05-21T03:23:45.754Z,92
2017-05-21T03:24:26.175Z,96
2017-05-21T03:25:06.604Z,104
2017-05-21T03:25:47.032Z,108
2017-05-21T03:26:28.198Z,116
2017-05-21T03:28:25.879Z,144
2017-05-21T03:29:06.326Z,152
2017-05-21T03:29:46.714Z,160
2017-05-21T03:30:27.154Z,168
2017-05-21T03:31:07.579Z,184
2017-05-21T03:31:48.020Z,188
2017-05-21T03:32:28.431Z,200
2017-05-21T03:33:08.851Z,212
2017-05-21T03:33:49.270Z,224
2017-05-21T03:34:29.705Z,240
2017-05-21T03:35:10.089Z,248
2017-05-21T03:35:50.502Z,260
2017-05-21T03:36:30.930Z,272
2017-05-21T03:37:11.388Z,288
2017-05-21T03:37:51.792Z,300
2017-05-21T03:38:32.192Z,316
2017-05-21T03:39:12.604Z,328
2017-05-21T03:39:53.054Z,340
2017-05-21T03:40:33.458Z,356
2017-05-21T03:41:13.896Z,372
2017-05-21T03:41:54.293Z,388
2017-05-21T03:42:34.746Z,400
2017-05-21T03:43:15.195Z,416
2017-05-21T03:43:55.590Z,436
2017-05-21T03:44:36.005Z,448
2017-05-21T03:45:16.472Z,464
2017-05-21T03:47:44.646Z,524
2017-05-21T03:48:25.078Z,544
2017-05-21T03:49:05.488Z,560
2017-05-21T03:49:45.900Z,576
2017-05-21T03:50:26.291Z,588
2017-05-21T03:51:06.696Z,608
2017-05-21T03:51:47.126Z,624
2017-05-21T03:52:27.577Z,644
2017-05-21T03:53:07.976Z,664
2017-05-21T03:53:48.383Z,680
2017-05-21T03:54:28.789Z,700
2017-05-21T03:55:09.197Z,716
2017-05-21T03:57:37.238Z,784
2017-05-21T03:58:17.669Z,804
2017-05-21T03:58:58.095Z,816
2017-05-21T03:59:38.538Z,840
2017-05-21T04:00:18.959Z,852
2017-05-21T04:00:59.388Z,872
2017-05-21T04:01:39.782Z,888
2017-05-21T04:02:20.217Z,908
2017-05-21T04:03:00.648Z,928
2017-05-21T04:03:41.078Z,944
2017-05-21T04:04:21.578Z,960
2017-05-21T04:05:02.026Z,972
2017-05-21T04:05:42.493Z,988
2017-05-21T04:06:22.843Z,1004
2017-05-21T04:07:03.245Z,1016
2017-05-21T04:07:43.633Z,1032
2017-05-21T04:08:24.049Z,1044
2017-05-21T04:09:04.543Z,1060
2017-05-21T04:09:44.862Z,1080
2017-05-21T04:10:25.293Z,1096
2017-05-21T04:11:05.712Z,1116
2017-05-21T04:11:46.115Z,1132
2017-05-21T04:12:26.537Z,1148
2017-05-21T04:13:06.939Z,1164
2017-05-21T04:13:47.333Z,1172
2017-05-21T04:14:27.788Z,1188
2017-05-21T04:15:08.187Z,1200
2017-05-21T04:15:48.660Z,1220
2017-05-21T04:16:29.056Z,1236
2017-05-21T04:17:09.493Z,1248
2017-05-21T04:17:49.915Z,1268
2017-05-21T04:18:30.282Z,1284
2017-05-21T04:19:10.726Z,1304
2017-05-21T04:19:51.110Z,1316
2017-05-21T04:21:49.064Z,1364
2017-05-21T04:22:29.486Z,1388
2017-05-21T04:23:09.912Z,1412
2017-05-21T04:23:50.327Z,1440
2017-05-21T04:24:30.774Z,1472
2017-05-21T04:25:11.189Z,1508
2017-05-21T04:25:51.569Z,1548
2017-05-21T04:26:32.001Z,1600
2017-05-21T04:27:12.433Z,1644
2017-05-21T04:27:52.829Z,1684
2017-05-21T04:28:33.236Z,1728
2017-05-21T04:29:13.689Z,1772
2017-05-21T04:29:54.145Z,1824
2017-05-21T04:30:34.542Z,1836
2017-05-21T04:31:14.936Z,1844
2017-05-21T04:31:55.368Z,1872
2017-05-21T04:32:35.775Z,2024
2017-05-21T04:33:16.179Z,2104
2017-05-21T04:35:13.985Z,2244
2017-05-21T04:35:54.395Z,2292
2017-05-21T04:36:34.820Z,2336
2017-05-21T04:37:15.307Z,2384
2017-05-21T04:37:55.654Z,2424
2017-05-21T04:38:36.060Z,2468
2017-05-21T04:40:34.042Z,2572
2017-05-21T04:41:14.435Z,2608
2017-05-21T04:41:54.863Z,2640
2017-05-21T04:42:35.289Z,2664
2017-05-21T04:43:15.725Z,2684
2017-05-21T04:43:56.079Z,2704
2017-05-21T04:45:53.883Z,2768
2017-05-21T04:46:34.245Z,2792
2017-05-21T04:47:14.657Z,2816
2017-05-21T04:47:55.107Z,2836
2017-05-21T04:48:35.511Z,2860
2017-05-21T04:49:15.962Z,2888
2017-05-21T04:49:56.401Z,2912
2017-05-21T04:50:36.793Z,2936
2017-05-21T04:53:05.459Z,3032
2017-05-21T04:53:45.910Z,3064
2017-05-21T04:54:26.309Z,3104
2017-05-21T04:55:06.740Z,3136
2017-05-21T04:55:47.179Z,3180
2017-05-21T04:58:20.324Z,3332
2017-05-21T04:59:00.760Z,3376
2017-05-21T04:59:41.197Z,3408
2017-05-21T05:00:21.635Z,3448
2017-05-21T05:01:02.051Z,3484
2017-05-21T05:01:42.458Z,3524
2017-05-21T05:02:22.883Z,3568
2017-05-21T05:03:03.379Z,3604
2017-05-21T05:03:43.773Z,3628
2017-05-21T05:04:24.201Z,3680
2017-05-21T05:05:04.618Z,3716
2017-05-21T05:05:45.055Z,3288
2017-05-21T05:06:25.453Z,3832
2017-05-21T05:07:05.848Z,3856
2017-05-21T05:07:46.243Z,3884
2017-05-21T05:08:26.675Z,3908
2017-05-21T05:09:07.107Z,3812
2017-05-21T05:09:47.521Z,3312
2017-05-21T05:10:27.936Z,3720
2017-05-21T05:11:08.366Z,4056
2017-05-21T05:11:48.783Z,4072
2017-05-21T05:12:29.223Z,4096
2017-05-21T05:13:09.644Z,4116
2017-05-21T05:13:50.043Z,4140
2017-05-21T05:14:30.535Z,4160
2017-05-21T05:15:10.972Z,4176
2017-05-21T05:15:51.369Z,4212
2017-05-21T05:16:31.803Z,4236
2017-05-21T05:17:12.296Z,4268
2017-05-21T05:17:52.667Z,4284
2017-05-21T05:18:33.104Z,4304
2017-05-21T05:19:13.522Z,4328
2017-05-21T05:19:53.941Z,4348
2017-05-21T05:20:34.405Z,4372
2017-05-21T05:21:14.800Z,4392
2017-05-21T05:21:55.237Z,4416
2017-05-21T05:22:35.655Z,4436
2017-05-21T05:23:16.075Z,4460
2017-05-21T05:23:56.496Z,4484
2017-05-21T05:26:14.268Z,4552
2017-05-21T05:26:54.704Z,4572
2017-05-21T05:27:35.147Z,4592
2017-05-21T05:28:15.583Z,4620
2017-05-21T05:28:55.997Z,4636
2017-05-21T05:29:36.445Z,4660
2017-05-21T05:30:16.886Z,4684
2017-05-21T05:30:57.325Z,4704
2017-05-21T05:31:37.702Z,4724
2017-05-21T05:32:18.128Z,4744
2017-05-21T05:32:58.534Z,4764
2017-05-21T05:33:38.938Z,4784
2017-05-21T05:34:19.334Z,4808
2017-05-21T05:34:59.786Z,4828
2017-05-21T05:35:40.204Z,4844
2017-05-21T05:36:20.589Z,4868
2017-05-21T05:37:00.963Z,4888
2017-05-21T05:37:41.404Z,4908
2017-05-21T05:38:21.811Z,4928
2017-05-21T05:39:02.262Z,4952
2017-05-21T05:39:42.659Z,4972
2017-05-21T05:40:23.089Z,4988
2017-05-21T05:41:03.464Z,5008
2017-05-21T05:41:43.871Z,5036
2017-05-21T05:42:24.294Z,5064
2017-05-21T05:43:04.708Z,5092
2017-05-21T05:43:45.192Z,5120
2017-05-21T05:44:25.627Z,5148
2017-05-21T05:45:06.034Z,5176
2017-05-21T05:47:39.290Z,5296
2017-05-21T05:48:19.713Z,5328
2017-05-21T05:49:00.159Z,5356
2017-05-21T05:49:40.620Z,5388
2017-05-21T05:50:21.013Z,5420
2017-05-21T05:51:01.491Z,5444
2017-05-21T05:51:41.888Z,5476
2017-05-21T05:52:22.301Z,5504
2017-05-21T05:53:02.769Z,5532
2017-05-21T05:53:43.173Z,5564
2017-05-21T05:54:23.639Z,5596
2017-05-21T05:55:04.050Z,5620
2017-05-21T05:55:44.567Z,5648
2017-05-21T05:56:25.005Z,5680
2017-05-21T05:57:05.410Z,5704
2017-05-21T05:57:45.868Z,5736
2017-05-21T05:58:26.303Z,5764
2017-05-21T05:59:06.747Z,5796
2017-05-21T06:01:04.479Z,5884
2017-05-21T06:01:44.909Z,5908
2017-05-21T06:02:25.359Z,5932
2017-05-21T06:03:05.752Z,5960
2017-05-21T06:03:46.192Z,5992
2017-05-21T06:04:26.649Z,6020
2017-05-21T06:05:07.064Z,6056
2017-05-21T06:05:47.499Z,6084
2017-05-21T06:06:28.893Z,6120
2017-05-21T06:07:09.416Z,6148
2017-05-21T06:07:49.889Z,6176
2017-05-21T06:08:30.378Z,6204
2017-05-21T06:09:10.803Z,6236
2017-05-21T06:09:51.230Z,6276
2017-05-21T06:10:31.686Z,6308
2017-05-21T06:11:12.151Z,6340
2017-05-21T06:11:52.553Z,6376
2017-05-21T06:12:32.939Z,6408
2017-05-21T06:13:13.767Z,6440
2017-05-21T06:13:54.209Z,6464
2017-05-21T06:14:34.659Z,6496
2017-05-21T06:15:15.098Z,6516
2017-05-21T06:15:55.514Z,6544
2017-05-21T06:16:36.009Z,6576
2017-05-21T06:17:16.402Z,6604
2017-05-21T06:17:56.835Z,6628
2017-05-21T06:18:37.367Z,6656
2017-05-21T06:19:17.767Z,6688
2017-05-21T06:19:58.271Z,6716
2017-05-21T06:20:38.655Z,6752
2017-05-21T06:21:19.007Z,6780
2017-05-21T06:21:59.415Z,6804
2017-05-21T06:22:39.839Z,6828
2017-05-21T06:23:20.294Z,6852
2017-05-21T06:24:00.725Z,6876
2017-05-21T06:24:41.137Z,6904
2017-05-21T06:25:21.561Z,6936
2017-05-21T06:27:39.738Z,7028
2017-05-21T06:28:20.200Z,7044
2017-05-21T06:29:00.613Z,7064
2017-05-21T06:29:41.070Z,7084
2017-05-21T06:30:21.596Z,7108
2017-05-21T06:31:02.014Z,7124
2017-05-21T06:31:42.429Z,7140
2017-05-21T06:32:22.893Z,7164
2017-05-21T06:33:03.266Z,7188
2017-05-21T06:33:43.730Z,7216
2017-05-21T06:34:24.172Z,7232
2017-05-21T06:35:04.624Z,7256
2017-05-21T06:35:45.095Z,7264
2017-05-21T06:36:25.559Z,7284
2017-05-21T06:37:06.011Z,7304
2017-05-21T06:37:46.455Z,7324
2017-05-21T06:38:26.898Z,7348
2017-05-21T06:39:07.300Z,7364
2017-05-21T06:39:47.685Z,7384
2017-05-21T06:40:28.760Z,7412
2017-05-21T06:41:09.769Z,7432
2017-05-21T06:41:50.216Z,7452
2017-05-21T06:44:08.329Z,7544
2017-05-21T06:44:48.758Z,7564
2017-05-21T06:45:29.197Z,7584
2017-05-21T06:46:09.683Z,7604
2017-05-21T06:46:50.065Z,7628
2017-05-21T06:47:30.534Z,7652
2017-05-21T06:48:10.958Z,7676
2017-05-21T06:48:51.374Z,7704
2017-05-21T06:51:04.654Z,7788
2017-05-21T06:51:45.130Z,7808
2017-05-21T06:52:25.740Z,7832
2017-05-21T06:54:23.626Z,7900
2017-05-21T06:55:04.059Z,7920
2017-05-21T06:55:44.937Z,7940
2017-05-21T06:58:03.502Z,8136
2017-05-21T06:58:43.934Z,8380
2017-05-21T06:59:24.381Z,8732
2017-05-21T07:00:04.787Z,9112
2017-05-21T07:00:45.190Z,9436
2017-05-21T07:01:25.625Z,9728
2017-05-21T07:02:06.041Z,10036
2017-05-21T07:02:47.152Z,10364
2017-05-21T07:03:27.544Z,10732
2017-05-21T07:04:08.078Z,11196
2017-05-21T07:04:48.656Z,11760
2017-05-21T07:05:29.650Z,12412
2017-05-21T07:06:10.145Z,13576
2017-05-21T07:06:53.356Z,20256
2017-05-21T07:07:33.790Z,31584
2017-05-21T07:08:14.200Z,44000
2017-05-21T07:08:54.644Z,50848
2017-05-21T07:09:35.110Z,55264
2017-05-21T07:11:55.867Z,58688
2017-05-21T07:12:36.296Z,59264
2017-05-21T07:13:18.394Z,60800
2017-05-21T07:13:58.881Z,62208
2017-05-21T07:14:40.247Z,63136
2017-05-21T07:15:21.239Z,64192
2017-05-21T07:16:01.631Z,64640
2017-05-21T07:16:42.013Z,66336
2017-05-21T07:17:22.442Z,69088
2017-05-21T07:18:02.906Z,67488
2017-05-21T07:18:43.387Z,66656
2017-05-21T07:19:24.780Z,69216
2017-05-21T07:20:05.167Z,71904
2017-05-21T07:20:45.577Z,73056
2017-05-21T07:21:25.984Z,74368
2017-05-21T07:22:06.449Z,69632
2017-05-21T07:22:46.879Z,65344
2017-05-21T07:23:27.340Z,66720
2017-05-21T07:24:07.748Z,70592
2017-05-21T07:24:48.165Z,68608
2017-05-21T07:25:28.596Z,69984
2017-05-21T07:26:09.040Z,70688
2017-05-21T07:26:50.003Z,70048
2017-05-21T07:27:30.424Z,69248
2017-05-21T07:29:43.323Z,76128
2017-05-21T07:30:23.767Z,71968
2017-05-21T07:31:04.235Z,73344
2017-05-21T07:31:44.672Z,71008
2017-05-21T07:32:26.014Z,72416
2017-05-21T07:33:06.421Z,68000
2017-05-21T07:33:46.854Z,68288
2017-05-21T07:36:14.713Z,71488
2017-05-21T07:36:59.917Z,67072
2017-05-21T07:37:40.517Z,66688
2017-05-21T07:38:21.053Z,68384
2017-05-21T07:39:03.413Z,70176
2017-05-21T07:39:45.734Z,70720
2017-05-21T07:40:26.157Z,72704
2017-05-21T07:41:06.648Z,74560
2017-05-21T07:41:47.027Z,73760
2017-05-21T07:44:05.044Z,75360
2017-05-21T07:44:45.536Z,76416
2017-05-21T07:45:25.985Z,76544
2017-05-21T07:46:06.356Z,74688
2017-05-21T07:46:46.783Z,75776
2017-05-21T07:48:44.699Z,72608
2017-05-21T07:49:25.291Z,75232
2017-05-21T07:50:05.697Z,75136
2017-05-21T07:50:46.139Z,70208
2017-05-21T07:51:26.643Z,66464
2017-05-21T07:52:07.019Z,70912
2017-05-21T07:52:47.487Z,75104
2017-05-21T07:53:28.507Z,74080
2017-05-21T07:54:08.923Z,75360
2017-05-21T07:54:49.388Z,77344
2017-05-21T07:55:29.809Z,79264
2017-05-21T07:56:10.199Z,77888
2017-05-21T07:56:50.707Z,80928
2017-05-21T07:57:31.107Z,80864
2017-05-21T07:58:11.524Z,79328
2017-05-21T07:58:52.092Z,79264
2017-05-21T07:59:32.516Z,80576
2017-05-21T08:00:12.974Z,78336
2017-05-21T08:00:53.376Z,78496
2017-05-21T08:01:33.864Z,79808
2017-05-21T08:02:14.322Z,83232
2017-05-21T08:02:54.774Z,82528
2017-05-21T08:03:35.210Z,82752
2017-05-21T08:04:15.627Z,84480
2017-05-21T08:04:56.526Z,85184
2017-05-21T08:05:36.958Z,83680
2017-05-21T08:06:17.380Z,80224
2017-05-21T08:06:57.820Z,81920
2017-05-21T08:07:38.245Z,82752
2017-05-21T08:08:18.694Z,81984
2017-05-21T08:08:59.111Z,83488
2017-05-21T08:09:39.556Z,83808
2017-05-21T08:10:19.968Z,86560
2017-05-21T08:11:00.410Z,84576
2017-05-21T08:11:40.861Z,86880
2017-05-21T08:12:21.358Z,89952
2017-05-21T08:13:01.803Z,92288
2017-05-21T08:13:42.234Z,86976
2017-05-21T08:14:22.654Z,78112
2017-05-21T08:15:03.140Z,77280
2017-05-21T08:15:43.558Z,81952
2017-05-21T08:16:23.971Z,88096
2017-05-21T08:18:21.737Z,84736
2017-05-21T08:19:02.180Z,84544
2017-05-21T08:19:42.644Z,84768
2017-05-21T08:20:23.101Z,88512
2017-05-21T08:21:03.511Z,86112
2017-05-21T08:21:43.960Z,85920
2017-05-21T08:22:24.385Z,84800
2017-05-21T08:23:04.837Z,83008
2017-05-21T08:23:45.277Z,80672
2017-05-21T08:24:25.732Z,82208
2017-05-21T08:25:06.148Z,84864
2017-05-21T08:25:46.603Z,83200
2017-05-21T08:26:27.061Z,81888
2017-05-21T08:27:07.513Z,83328
2017-05-21T08:27:47.951Z,86784
2017-05-21T08:28:28.404Z,87104
2017-05-21T08:29:09.048Z,89984
2017-05-21T08:29:49.439Z,91776
2017-05-21T08:30:29.862Z,90464
2017-05-21T08:31:10.342Z,92096
2017-05-21T08:31:50.826Z,92576
2017-05-21T08:32:31.215Z,94272
2017-05-21T08:33:11.677Z,91776
2017-05-21T08:33:52.138Z,91360
2017-05-21T08:34:32.533Z,91104
2017-05-21T08:35:13.018Z,91488
2017-05-21T08:35:53.469Z,89952
2017-05-21T08:36:34.263Z,84736
2017-05-21T08:37:14.653Z,85472
2017-05-21T08:37:55.106Z,89600
2017-05-21T08:38:35.559Z,94272
2017-05-21T08:39:16.006Z,95552
2017-05-21T08:39:56.424Z,94752
2017-05-21T08:40:36.911Z,96960
2017-05-21T08:41:17.348Z,92736
2017-05-21T08:43:35.322Z,96256
2017-05-21T08:44:15.750Z,94240
2017-05-21T08:44:56.167Z,94496
2017-05-21T08:45:36.582Z,96384
2017-05-21T08:46:17.031Z,97024
2017-05-21T08:48:15.842Z,93344
2017-05-21T08:48:56.399Z,94272
2017-05-21T08:49:37.270Z,95840
2017-05-21T08:50:18.521Z,94112
2017-05-21T08:50:58.996Z,95200
2017-05-21T08:51:39.403Z,93824
2017-05-21T08:52:20.031Z,92800
2017-05-21T08:53:00.444Z,95136
2017-05-21T08:53:41.096Z,100800
2017-05-21T08:54:21.529Z,101472
2017-05-21T08:55:02.811Z,97632
2017-05-21T08:55:43.219Z,92864
2017-05-21T08:56:23.674Z,92384
2017-05-21T08:57:04.122Z,98272
2017-05-21T08:57:44.649Z,101824
2017-05-21T08:58:25.311Z,101056
2017-05-21T08:59:05.785Z,100928
2017-05-21T08:59:46.269Z,103456
2017-05-21T09:00:26.654Z,104672
2017-05-21T09:01:07.091Z,102048
2017-05-21T09:01:47.546Z,101632
2017-05-21T09:02:27.979Z,100640
2017-05-21T09:03:08.422Z,102432
2017-05-21T09:03:48.845Z,105152
2017-05-21T09:04:29.295Z,106048
2017-05-21T09:05:09.853Z,100896
2017-05-21T09:05:50.487Z,101760
2017-05-21T09:08:03.497Z,104704
2017-05-21T09:08:43.923Z,105984
2017-05-21T09:09:24.353Z,104352
2017-05-21T09:10:05.028Z,104128
2017-05-21T09:10:45.492Z,102720
2017-05-21T09:11:25.941Z,102400
2017-05-21T09:12:06.402Z,105600
2017-05-21T09:12:46.856Z,107136
2017-05-21T09:13:27.270Z,104864
2017-05-21T09:14:07.683Z,104800
2017-05-21T09:14:48.100Z,107488
2017-05-21T09:15:28.526Z,109472
2017-05-21T09:16:08.993Z,106784
2017-05-21T09:16:49.391Z,102208
2017-05-21T09:17:29.948Z,102080
2017-05-21T09:18:10.401Z,106432
2017-05-21T09:18:50.848Z,109664
2017-05-21T09:19:31.296Z,112032
2017-05-21T09:20:11.737Z,108832
2017-05-21T09:20:52.156Z,106048
2017-05-21T09:21:32.547Z,105312
2017-05-21T09:22:13.051Z,108672
2017-05-21T09:22:53.542Z,109472
2017-05-21T09:23:33.959Z,111616
2017-05-21T09:24:14.322Z,110368
2017-05-21T09:24:54.779Z,110016
2017-05-21T09:25:36.734Z,108992
2017-05-21T09:26:17.131Z,105920
2017-05-21T09:26:57.562Z,106784
2017-05-21T09:27:37.990Z,103776
2017-05-21T09:29:51.482Z,100224
2017-05-21T09:30:31.953Z,103840
2017-05-21T09:31:12.364Z,104928
2017-05-21T09:31:52.789Z,103424
2017-05-21T09:32:33.197Z,102080
2017-05-21T09:33:13.653Z,103680
2017-05-21T09:33:54.094Z,103552
2017-05-21T09:34:34.532Z,101248
2017-05-21T09:36:52.695Z,101600
2017-05-21T09:37:33.157Z,101056
2017-05-21T09:38:13.667Z,104224
2017-05-21T09:40:47.340Z,105600
2017-05-21T09:41:27.785Z,106016
2017-05-21T09:42:08.277Z,109248
2017-05-21T09:42:48.737Z,107584
2017-05-21T09:43:29.126Z,101504
2017-05-21T09:44:09.586Z,98720
2017-05-21T09:44:50.030Z,98880
2017-05-21T09:47:23.358Z,95936
2017-05-21T09:48:04.392Z,94976
2017-05-21T09:48:44.835Z,98336
2017-05-21T09:49:25.347Z,98336
2017-05-21T09:50:05.830Z,96256
2017-05-21T09:50:46.243Z,99872
2017-05-21T09:51:26.693Z,105472
2017-05-21T09:53:39.691Z,103680
2017-05-21T09:54:20.149Z,103424
2017-05-21T09:56:48.273Z,101376
2017-05-21T09:57:28.734Z,100192
2017-05-21T09:58:09.192Z,94880
2017-05-21T09:58:49.657Z,96256
2017-05-21T09:59:30.055Z,100672
2017-05-21T10:00:10.532Z,102272
2017-05-21T10:00:50.928Z,103136
2017-05-21T10:03:08.952Z,89856
2017-05-21T10:03:49.392Z,84192
2017-05-21T10:04:29.864Z,82400
2017-05-21T10:05:10.600Z,88192
2017-05-21T10:05:51.222Z,95136
2017-05-21T10:06:31.533Z,100288
2017-05-21T10:07:12.001Z,104032
2017-05-21T10:07:52.463Z,106336
2017-05-21T10:08:32.987Z,105568
2017-05-21T10:09:13.491Z,108448
2017-05-21T10:09:53.958Z,28192
2017-05-21T10:10:34.813Z,25248
2017-05-21T10:11:15.159Z,52416
2017-05-21T10:11:55.581Z,84576
2017-05-21T10:12:35.976Z,27744
2017-05-21T10:13:16.810Z,26496
2017-05-21T10:13:57.317Z,32448
2017-05-21T10:14:37.693Z,39936
2017-05-21T10:15:18.132Z,80256
2017-05-21T10:17:46.290Z,92928
2017-05-21T10:18:26.710Z,51488
2017-05-21T10:19:07.202Z,115296
2017-05-21T10:19:47.649Z,112032
2017-05-21T10:20:28.029Z,119968
2017-05-21T10:21:08.452Z,118592
2017-05-21T10:21:48.886Z,113536
2017-05-21T10:22:29.286Z,113600
2017-05-21T10:23:09.750Z,110048
2017-05-21T10:23:50.186Z,60576
2017-05-21T10:24:30.612Z,125632
2017-05-21T10:25:11.065Z,115104
2017-05-21T10:25:51.504Z,116256
2017-05-21T10:26:31.995Z,80288
2017-05-21T10:29:05.212Z,113536
2017-05-21T10:29:45.675Z,112544
2017-05-21T10:30:26.223Z,87808
2017-05-21T10:33:00.824Z,39296
2017-05-21T10:33:41.365Z,22400
2017-05-21T10:34:21.865Z,19712
2017-05-21T10:35:02.328Z,18656
2017-05-21T10:35:42.785Z,19936
2017-05-21T10:36:23.252Z,25696